createdAt,value
2019-04-16T00:00:29.844Z,9.89
2019-04-16T00:02:22.736Z,9.91
2019-04-16T00:03:23.025Z,9.90
2019-04-16T00:05:15.688Z,9.90
2019-04-16T00:06:15.652Z,9.87
2019-04-16T00:08:26.550Z,9.91
2019-04-16T00:09:09.058Z,9.91
2019-04-16T00:11:02.060Z,9.84
2019-04-16T00:12:02.191Z,9.81
2019-04-16T00:13:54.927Z,9.83
2019-04-16T00:14:54.883Z,9.86
2019-04-16T00:16:47.794Z,9.83
2019-04-16T00:17:48.132Z,9.87
2019-04-16T00:19:40.703Z,9.76
2019-04-16T00:20:40.706Z,9.78
2019-04-16T00:22:33.624Z,9.79
2019-04-16T00:23:33.618Z,9.78
2019-04-16T00:25:26.526Z,9.74
2019-04-16T00:26:27.494Z,9.68
2019-04-16T00:28:19.436Z,9.64
2019-04-16T00:29:19.448Z,9.65
2019-04-16T00:31:12.338Z,9.54
2019-04-16T00:32:12.354Z,9.65
2019-04-16T00:34:05.258Z,9.60
2019-04-16T00:35:05.263Z,9.53
2019-04-16T00:36:58.165Z,9.50
2019-04-16T00:37:58.257Z,9.56
2019-04-16T00:39:55.516Z,9.57
2019-04-16T00:40:51.087Z,9.51
2019-04-16T00:42:43.982Z,9.53
2019-04-16T00:43:44.287Z,9.43
2019-04-16T00:45:36.899Z,9.40
2019-04-16T00:46:36.903Z,9.40
2019-04-16T00:48:29.813Z,9.46
2019-04-16T00:49:29.813Z,9.46
2019-04-16T00:51:22.713Z,9.39
2019-04-16T00:52:22.721Z,9.36
2019-04-16T00:54:15.630Z,9.35
2019-04-16T00:55:15.632Z,9.38
2019-04-16T00:57:08.531Z,9.33
2019-04-16T00:58:08.594Z,9.21
2019-04-16T01:00:01.499Z,9.26
2019-04-16T01:01:01.455Z,9.28
2019-04-16T01:02:54.353Z,9.29
2019-04-16T01:03:54.365Z,9.21
2019-04-16T01:05:47.267Z,9.20
2019-04-16T01:06:47.272Z,9.20
2019-04-16T01:08:53.593Z,9.21
2019-04-16T01:09:40.183Z,9.13
2019-04-16T01:11:33.575Z,9.14
2019-04-16T01:12:33.589Z,9.21
2019-04-16T01:14:26.753Z,9.29
2019-04-16T01:15:26.500Z,9.14
2019-04-16T01:17:19.405Z,9.23
2019-04-16T01:18:19.409Z,9.13
2019-04-16T01:20:13.096Z,9.20
2019-04-16T01:21:14.141Z,9.11
2019-04-16T01:23:05.715Z,9.05
2019-04-16T01:24:05.721Z,9.05
2019-04-16T01:25:58.665Z,8.99
2019-04-16T01:26:59.173Z,8.99
2019-04-16T01:28:51.543Z,8.92
2019-04-16T01:29:51.545Z,8.94
2019-04-16T01:31:44.452Z,8.94
2019-04-16T01:32:44.454Z,9.01
2019-04-16T01:34:37.370Z,8.96
2019-04-16T01:35:37.366Z,8.91
2019-04-16T01:37:30.266Z,8.87
2019-04-16T01:38:30.277Z,8.79
2019-04-16T01:40:23.183Z,8.74
2019-04-16T01:41:23.184Z,8.86
2019-04-16T01:43:16.083Z,8.79
2019-04-16T01:44:16.095Z,8.70
2019-04-16T01:46:09.001Z,8.70
2019-04-16T01:47:09.003Z,8.68
2019-04-16T01:49:01.910Z,8.66
2019-04-16T01:50:01.911Z,8.66
2019-04-16T01:51:54.817Z,8.70
2019-04-16T01:52:54.822Z,8.79
2019-04-16T01:54:47.729Z,8.68
2019-04-16T01:55:47.733Z,8.65
2019-04-16T01:57:40.634Z,8.68
2019-04-16T01:58:40.642Z,8.65
2019-04-16T02:00:33.550Z,8.63
2019-04-16T02:01:33.597Z,8.66
2019-04-16T02:03:26.458Z,8.73
2019-04-16T02:04:26.461Z,8.70
2019-04-16T02:06:19.371Z,8.73
2019-04-16T02:07:19.371Z,8.59
2019-04-16T02:09:22.403Z,8.63
2019-04-16T02:10:12.282Z,8.61
2019-04-16T02:12:05.181Z,8.61
2019-04-16T02:13:05.189Z,8.65
2019-04-16T02:14:58.101Z,8.55
2019-04-16T02:15:58.102Z,8.61
2019-04-16T02:17:51.009Z,8.58
2019-04-16T02:18:51.012Z,8.48
2019-04-16T02:20:43.916Z,8.56
2019-04-16T02:21:43.922Z,8.45
2019-04-16T02:23:36.820Z,8.50
2019-04-16T02:24:36.828Z,8.55
2019-04-16T02:26:29.737Z,8.45
2019-04-16T02:27:29.739Z,8.47
2019-04-16T02:29:22.647Z,8.50
2019-04-16T02:30:22.648Z,8.45
2019-04-16T02:32:15.547Z,8.41
2019-04-16T02:33:15.555Z,8.43
2019-04-16T02:35:08.723Z,8.30
2019-04-16T02:36:08.875Z,8.43
2019-04-16T02:38:01.371Z,8.36
2019-04-16T02:39:01.977Z,8.38
2019-04-16T02:40:54.851Z,8.33
2019-04-16T02:41:58.257Z,8.26
2019-04-16T02:43:47.191Z,8.33
2019-04-16T02:44:49.898Z,8.33
2019-04-16T02:46:40.100Z,8.33
2019-04-16T02:47:42.194Z,8.34
2019-04-16T02:49:33.022Z,8.23
2019-04-16T02:50:33.010Z,8.22
2019-04-16T02:52:25.906Z,8.22
2019-04-16T02:53:25.914Z,8.23
2019-04-16T02:55:18.822Z,8.22
2019-04-16T02:56:19.362Z,8.19
2019-04-16T02:58:11.775Z,8.15
2019-04-16T02:59:13.556Z,8.16
2019-04-16T03:01:04.637Z,8.19
2019-04-16T03:02:04.639Z,8.07
2019-04-16T03:03:57.546Z,8.10
2019-04-16T03:04:58.444Z,8.05
2019-04-16T03:06:50.502Z,8.08
2019-04-16T03:07:50.460Z,8.05
2019-04-16T03:09:43.363Z,8.05
2019-04-16T03:10:44.690Z,8.04
2019-04-16T03:12:36.261Z,8.05
2019-04-16T03:13:36.273Z,8.07
2019-04-16T03:15:30.289Z,8.01
2019-04-16T03:16:29.185Z,8.07
2019-04-16T03:18:22.079Z,8.02
2019-04-16T03:19:22.088Z,8.00
2019-04-16T03:21:15.155Z,7.97
2019-04-16T03:22:15.121Z,7.92
2019-04-16T03:24:09.488Z,7.95
2019-04-16T03:25:12.625Z,7.89
2019-04-16T03:27:04.226Z,7.80
2019-04-16T03:28:00.807Z,7.79
2019-04-16T03:29:53.712Z,7.82
2019-04-16T03:30:53.722Z,7.67
2019-04-16T03:32:46.623Z,7.67
2019-04-16T03:33:50.274Z,7.64
2019-04-16T03:35:39.530Z,7.52
2019-04-16T03:36:39.533Z,7.49
2019-04-16T03:38:36.718Z,7.45
2019-04-16T03:39:32.444Z,7.40
2019-04-16T03:41:25.842Z,7.34
2019-04-16T03:42:27.395Z,7.34
2019-04-16T03:44:18.252Z,7.23
2019-04-16T03:45:18.256Z,7.25
2019-04-16T03:47:11.161Z,7.23
2019-04-16T03:48:11.223Z,7.20
2019-04-16T03:50:04.242Z,7.10
2019-04-16T03:51:04.744Z,7.12
2019-04-16T03:52:56.973Z,7.07
2019-04-16T03:53:56.976Z,7.09
2019-04-16T03:55:49.889Z,7.13
2019-04-16T03:56:49.892Z,7.09
2019-04-16T03:58:42.787Z,6.97
2019-04-16T03:59:42.792Z,6.98
2019-04-16T04:01:35.696Z,6.99
2019-04-16T04:02:35.699Z,6.99
2019-04-16T04:04:29.278Z,7.02
2019-04-16T04:05:28.607Z,6.88
2019-04-16T04:07:21.510Z,6.95
2019-04-16T04:08:21.514Z,6.97
2019-04-16T04:10:15.918Z,6.97
2019-04-16T04:11:14.429Z,6.97
2019-04-16T04:13:07.325Z,6.97
2019-04-16T04:14:07.326Z,6.95
2019-04-16T04:16:01.658Z,6.89
2019-04-16T04:17:05.409Z,6.87
2019-04-16T04:18:53.127Z,6.88
2019-04-16T04:19:53.134Z,6.97
2019-04-16T04:21:46.043Z,6.95
2019-04-16T04:22:46.044Z,6.85
2019-04-16T04:24:38.942Z,6.87
2019-04-16T04:25:38.950Z,6.87
2019-04-16T04:27:31.856Z,6.85
2019-04-16T04:28:31.855Z,6.87
2019-04-16T04:30:25.718Z,6.80
2019-04-16T04:31:24.758Z,6.81
2019-04-16T04:33:17.737Z,6.84
2019-04-16T04:34:17.838Z,6.81
2019-04-16T04:36:10.592Z,6.84
2019-04-16T04:37:10.575Z,6.69
2019-04-16T04:39:03.474Z,6.76
2019-04-16T04:40:03.482Z,6.77
2019-04-16T04:41:57.203Z,6.71
2019-04-16T04:42:57.755Z,6.62
2019-04-16T04:44:49.290Z,6.66
2019-04-16T04:45:49.288Z,6.69
2019-04-16T04:47:42.186Z,6.66
2019-04-16T04:48:42.191Z,6.59
2019-04-16T04:50:35.997Z,6.61
2019-04-16T04:51:36.393Z,6.59
2019-04-16T04:53:28.000Z,6.66
2019-04-16T04:54:28.001Z,6.61
2019-04-16T04:56:20.905Z,6.55
2019-04-16T04:57:21.077Z,6.56
2019-04-16T04:59:13.804Z,6.58
2019-04-16T05:00:13.814Z,6.66
2019-04-16T05:02:06.715Z,6.59
2019-04-16T05:03:06.716Z,6.55
2019-04-16T05:04:59.629Z,6.62
2019-04-16T05:05:59.637Z,6.58
2019-04-16T05:07:52.541Z,6.64
2019-04-16T05:08:52.556Z,6.70
2019-04-16T05:10:58.301Z,6.73
2019-04-16T05:11:48.319Z,6.84
2019-04-16T05:13:38.850Z,6.88
2019-04-16T05:14:38.854Z,6.79
2019-04-16T05:16:34.314Z,6.89
2019-04-16T05:17:31.757Z,6.92
2019-04-16T05:19:24.657Z,6.97
2019-04-16T05:20:24.669Z,6.89
2019-04-16T05:22:20.576Z,6.94
2019-04-16T05:23:17.573Z,7.05
2019-04-16T05:25:10.515Z,7.12
2019-04-16T05:26:10.579Z,7.12
2019-04-16T05:28:03.382Z,7.25
2019-04-16T05:29:03.386Z,7.35
2019-04-16T05:30:56.285Z,7.37
2019-04-16T05:31:57.336Z,7.37
2019-04-16T05:33:49.210Z,7.42
2019-04-16T05:34:49.200Z,7.34
2019-04-16T05:36:46.488Z,7.46
2019-04-16T05:37:42.110Z,7.45
2019-04-16T05:39:35.008Z,7.55
2019-04-16T05:40:35.286Z,7.64
2019-04-16T05:42:27.921Z,7.74
2019-04-16T05:43:30.225Z,7.64
2019-04-16T05:45:20.827Z,7.79
2019-04-16T05:46:20.831Z,7.92
2019-04-16T05:48:13.734Z,8.04
2019-04-16T05:49:13.737Z,8.18
2019-04-16T05:51:06.650Z,8.18
2019-04-16T05:52:06.648Z,8.37
2019-04-16T05:53:59.554Z,8.28
2019-04-16T05:55:01.422Z,8.29
2019-04-16T05:56:55.472Z,8.34
2019-04-16T05:57:52.482Z,8.29
2019-04-16T05:59:45.377Z,8.34
2019-04-16T06:00:45.379Z,8.41
2019-04-16T06:02:38.283Z,8.43
2019-04-16T06:03:38.309Z,8.55
2019-04-16T06:05:31.196Z,8.52
2019-04-16T06:06:31.696Z,8.63
2019-04-16T06:08:24.111Z,8.73
2019-04-16T06:09:24.116Z,8.92
2019-04-16T06:11:28.302Z,9.29
2019-04-16T06:12:17.025Z,9.60
2019-04-16T06:14:09.932Z,9.91
2019-04-16T06:15:09.935Z,10.20
2019-04-16T06:17:02.839Z,10.70
2019-04-16T06:18:05.378Z,10.96
2019-04-16T06:19:55.755Z,11.44
2019-04-16T06:20:55.761Z,11.69
2019-04-16T06:22:48.671Z,12.13
2019-04-16T06:23:48.677Z,12.13
2019-04-16T06:25:42.142Z,12.35
2019-04-16T06:26:44.429Z,12.54
2019-04-16T06:28:34.498Z,12.90
2019-04-16T06:29:34.504Z,13.03
2019-04-16T06:31:27.419Z,13.20
2019-04-16T06:32:28.110Z,13.12
2019-04-16T06:34:23.468Z,13.42
2019-04-16T06:35:20.344Z,13.38
2019-04-16T06:37:13.258Z,13.26
2019-04-16T06:38:13.263Z,13.20
2019-04-16T06:40:06.175Z,13.33
2019-04-16T06:41:06.184Z,13.32
2019-04-16T06:42:59.098Z,13.22
2019-04-16T06:43:59.681Z,13.22
2019-04-16T06:45:52.014Z,13.33
2019-04-16T06:46:52.028Z,13.32
2019-04-16T06:48:46.015Z,13.30
2019-04-16T06:49:48.229Z,13.39
2019-04-16T06:51:43.388Z,13.45
2019-04-16T06:52:38.037Z,13.39
2019-04-16T06:54:32.889Z,13.78
2019-04-16T06:55:34.982Z,13.85
2019-04-16T06:57:26.778Z,13.66
2019-04-16T06:58:27.239Z,13.48
2019-04-16T07:00:17.094Z,13.15
2019-04-16T07:01:17.103Z,12.93
2019-04-16T07:03:10.017Z,12.75
2019-04-16T07:04:10.027Z,12.67
2019-04-16T07:06:04.056Z,12.72
2019-04-16T07:07:07.822Z,12.67
2019-04-16T07:08:55.861Z,12.67
2019-04-16T07:09:56.978Z,12.54
2019-04-16T07:11:54.544Z,12.42
2019-04-16T07:12:48.848Z,12.38
2019-04-16T07:14:41.699Z,12.41
2019-04-16T07:15:41.707Z,12.37
2019-04-16T07:17:34.641Z,12.29
2019-04-16T07:18:35.628Z,12.17
2019-04-16T07:20:27.538Z,12.13
2019-04-16T07:21:27.545Z,12.14
2019-04-16T07:23:24.252Z,12.28
2019-04-16T07:24:22.725Z,12.21
2019-04-16T07:26:14.793Z,12.21
2019-04-16T07:27:13.415Z,12.17
2019-04-16T07:29:06.296Z,12.28
2019-04-16T07:30:08.484Z,12.17
2019-04-16T07:31:59.240Z,12.13
2019-04-16T07:33:01.128Z,12.23
2019-04-16T07:34:52.142Z,12.17
2019-04-16T07:35:52.149Z,12.12
2019-04-16T07:37:45.056Z,12.17
2019-04-16T07:38:45.064Z,12.13
2019-04-16T07:40:39.835Z,12.21
2019-04-16T07:41:43.053Z,12.19
2019-04-16T07:43:31.845Z,12.20
2019-04-16T07:44:30.898Z,12.24
2019-04-16T07:46:23.803Z,12.21
2019-04-16T07:47:23.814Z,12.31
2019-04-16T07:49:16.726Z,12.20
2019-04-16T07:50:16.735Z,12.32
2019-04-16T07:52:12.114Z,12.28
2019-04-16T07:53:13.537Z,12.42
2019-04-16T07:55:02.560Z,12.35
2019-04-16T07:56:02.564Z,12.28
2019-04-16T07:57:55.681Z,12.28
2019-04-16T07:59:00.158Z,12.23
2019-04-16T08:00:48.395Z,12.16
2019-04-16T08:01:48.835Z,12.34
2019-04-16T08:03:41.312Z,12.39
2019-04-16T08:04:41.318Z,12.47
2019-04-16T08:06:34.222Z,12.59
2019-04-16T08:07:34.233Z,12.62
2019-04-16T08:09:29.903Z,12.74
2019-04-16T08:10:27.150Z,12.62
2019-04-16T08:12:30.104Z,12.85
2019-04-16T08:13:20.076Z,12.72
2019-04-16T08:15:15.241Z,12.78
2019-04-16T08:16:13.059Z,12.83
2019-04-16T08:18:05.972Z,12.79
2019-04-16T08:19:05.976Z,12.79
2019-04-16T08:21:02.052Z,12.77
2019-04-16T08:21:58.895Z,12.75
2019-04-16T08:23:52.985Z,12.74
2019-04-16T08:24:57.610Z,12.79
2019-04-16T08:26:45.368Z,12.74
2019-04-16T08:27:47.116Z,12.74
2019-04-16T08:29:37.644Z,12.93
2019-04-16T08:30:39.521Z,12.92
2019-04-16T08:32:30.576Z,13.03
2019-04-16T08:33:30.586Z,13.14
2019-04-16T08:35:23.497Z,13.05
2019-04-16T08:36:23.504Z,13.14
2019-04-16T08:38:16.410Z,13.17
2019-04-16T08:39:16.420Z,13.12
2019-04-16T08:41:12.451Z,13.28
2019-04-16T08:42:09.340Z,13.28
2019-04-16T08:44:03.411Z,13.33
2019-04-16T08:45:07.376Z,13.44
2019-04-16T08:46:58.298Z,13.42
2019-04-16T08:47:55.182Z,13.54
2019-04-16T08:49:53.669Z,13.44
2019-04-16T08:50:49.479Z,13.30
2019-04-16T08:52:41.705Z,13.39
2019-04-16T08:53:43.832Z,13.36
2019-04-16T08:55:33.922Z,13.28
2019-04-16T08:56:33.932Z,13.33
2019-04-16T08:58:26.835Z,13.55
2019-04-16T08:59:26.846Z,13.59
2019-04-16T09:01:23.374Z,13.60
2019-04-16T09:02:19.763Z,13.67
2019-04-16T09:04:12.697Z,13.78
2019-04-16T09:05:12.682Z,13.78
2019-04-16T09:07:12.087Z,13.85
2019-04-16T09:08:12.990Z,13.95
2019-04-16T09:09:59.002Z,14.14
2019-04-16T09:11:00.251Z,14.14
2019-04-16T09:13:03.339Z,13.92
2019-04-16T09:13:51.943Z,13.84
2019-04-16T09:15:44.841Z,13.89
2019-04-16T09:16:44.850Z,13.92
2019-04-16T09:18:37.753Z,14.02
2019-04-16T09:19:37.769Z,14.03
2019-04-16T09:21:31.171Z,14.24
2019-04-16T09:22:31.186Z,14.27
2019-04-16T09:24:24.082Z,14.21
2019-04-16T09:25:24.096Z,14.39
2019-04-16T09:27:17.021Z,14.54
2019-04-16T09:28:25.271Z,14.51
2019-04-16T09:30:14.189Z,14.47
2019-04-16T09:31:09.942Z,14.55
2019-04-16T09:33:02.840Z,14.70
2019-04-16T09:34:06.359Z,14.73
2019-04-16T09:35:55.810Z,14.72
2019-04-16T09:36:55.770Z,14.75
2019-04-16T09:38:49.169Z,14.78
2019-04-16T09:39:49.184Z,14.92
2019-04-16T09:41:42.104Z,15.13
2019-04-16T09:42:42.108Z,15.21
2019-04-16T09:44:35.566Z,15.13
2019-04-16T09:45:37.287Z,15.17
2019-04-16T09:47:28.955Z,15.23
2019-04-16T09:48:27.948Z,15.27
2019-04-16T09:50:20.884Z,15.11
2019-04-16T09:51:21.452Z,15.11
2019-04-16T09:53:13.771Z,15.27
2019-04-16T09:54:14.222Z,15.28
2019-04-16T09:56:06.698Z,15.01
2019-04-16T09:57:06.705Z,14.98
2019-04-16T09:58:59.632Z,14.86
2019-04-16T09:59:59.649Z,14.86
2019-04-16T10:01:52.534Z,14.96
2019-04-16T10:02:55.060Z,14.95
2019-04-16T10:04:45.453Z,14.95
2019-04-16T10:05:45.463Z,15.06
2019-04-16T10:07:40.288Z,15.31
2019-04-16T10:08:38.402Z,15.35
2019-04-16T10:10:31.319Z,15.50
2019-04-16T10:11:32.731Z,15.53
2019-04-16T10:13:31.777Z,15.69
2019-04-16T10:14:24.226Z,15.68
2019-04-16T10:16:17.152Z,15.69
2019-04-16T10:17:17.145Z,15.69
2019-04-16T10:19:10.062Z,15.51
2019-04-16T10:20:10.072Z,15.51
2019-04-16T10:22:02.985Z,15.59
2019-04-16T10:23:03.010Z,15.56
2019-04-16T10:24:55.917Z,15.60
2019-04-16T10:25:55.923Z,15.60
2019-04-16T10:27:48.838Z,15.78
2019-04-16T10:28:48.853Z,15.76
2019-04-16T10:30:41.762Z,15.87
2019-04-16T10:31:41.768Z,15.96
2019-04-16T10:33:34.677Z,16.14
2019-04-16T10:34:36.318Z,16.20
2019-04-16T10:36:27.607Z,16.28
2019-04-16T10:37:27.929Z,16.23
2019-04-16T10:39:20.505Z,16.42
2019-04-16T10:40:20.520Z,16.50
2019-04-16T10:42:13.435Z,16.35
2019-04-16T10:43:13.445Z,16.48
2019-04-16T10:45:06.414Z,16.56
2019-04-16T10:46:09.486Z,16.67
2019-04-16T10:47:59.296Z,16.82
2019-04-16T10:48:59.396Z,16.78
2019-04-16T10:50:52.241Z,16.63
2019-04-16T10:51:52.224Z,16.73
2019-04-16T10:53:45.139Z,16.67
2019-04-16T10:54:45.167Z,16.67
2019-04-16T10:56:38.114Z,16.52
2019-04-16T10:57:38.525Z,16.50
2019-04-16T10:59:30.993Z,16.38
2019-04-16T11:00:31.008Z,16.49
2019-04-16T11:02:23.905Z,16.46
2019-04-16T11:03:23.911Z,16.35
2019-04-16T11:05:19.165Z,16.41
2019-04-16T11:06:16.837Z,16.41
2019-04-16T11:08:09.755Z,16.60
2019-04-16T11:09:09.777Z,16.78
2019-04-16T11:11:02.681Z,16.82
2019-04-16T11:12:05.270Z,16.91
2019-04-16T11:14:00.169Z,16.86
2019-04-16T11:14:55.607Z,16.85
2019-04-16T11:16:48.526Z,17.00
2019-04-16T11:17:48.561Z,16.97
2019-04-16T11:19:41.472Z,17.01
2019-04-16T11:20:41.452Z,17.12
2019-04-16T11:22:34.376Z,17.21
2019-04-16T11:23:34.395Z,17.26
2019-04-16T11:25:27.294Z,17.38
2019-04-16T11:26:27.304Z,17.30
2019-04-16T11:28:20.260Z,17.23
2019-04-16T11:29:20.261Z,17.22
2019-04-16T11:31:13.158Z,17.40
2019-04-16T11:32:13.174Z,17.40
2019-04-16T11:34:06.078Z,17.26
2019-04-16T11:35:06.109Z,17.44
2019-04-16T11:36:59.004Z,17.49
2019-04-16T11:37:59.012Z,17.56
2019-04-16T11:39:51.955Z,17.59
2019-04-16T11:40:51.949Z,17.59
2019-04-16T11:42:44.853Z,17.70
2019-04-16T11:43:44.859Z,17.81
2019-04-16T11:45:37.770Z,17.86
2019-04-16T11:46:37.784Z,17.81
2019-04-16T11:48:30.704Z,17.82
2019-04-16T11:49:30.714Z,17.87
2019-04-16T11:51:23.645Z,17.79
2019-04-16T11:52:23.666Z,17.70
2019-04-16T11:54:16.548Z,17.82
2019-04-16T11:55:16.595Z,17.95
2019-04-16T11:57:12.905Z,17.81
2019-04-16T11:58:09.491Z,17.82
2019-04-16T12:00:07.694Z,17.90
2019-04-16T12:01:02.460Z,17.99
2019-04-16T12:02:55.336Z,18.02
2019-04-16T12:03:56.296Z,18.00
2019-04-16T12:05:48.256Z,18.14
2019-04-16T12:06:48.272Z,18.21
2019-04-16T12:08:41.228Z,18.12
2019-04-16T12:09:41.265Z,18.36
2019-04-16T12:11:34.138Z,18.44
2019-04-16T12:12:34.147Z,18.45
2019-04-16T12:14:32.349Z,18.54
2019-04-16T12:15:27.100Z,18.55
2019-04-16T12:17:19.997Z,18.45
2019-04-16T12:18:20.026Z,18.55
2019-04-16T12:20:12.940Z,18.47
2019-04-16T12:21:12.961Z,18.45
2019-04-16T12:23:06.042Z,18.41
2019-04-16T12:24:05.919Z,18.29
2019-04-16T12:25:58.777Z,18.32
2019-04-16T12:26:58.797Z,18.33
2019-04-16T12:28:51.746Z,18.35
2019-04-16T12:29:51.720Z,18.45
2019-04-16T12:31:44.670Z,18.66
2019-04-16T12:32:44.682Z,18.73
2019-04-16T12:34:37.605Z,18.85
2019-04-16T12:35:37.574Z,18.87
2019-04-16T12:37:30.505Z,18.94
2019-04-16T12:38:30.541Z,18.82
2019-04-16T12:40:23.423Z,18.98
2019-04-16T12:41:23.471Z,18.87
2019-04-16T12:43:16.643Z,18.81
2019-04-16T12:44:16.394Z,18.85
2019-04-16T12:46:09.293Z,18.91
2019-04-16T12:47:09.288Z,19.07
2019-04-16T12:49:02.274Z,19.14
2019-04-16T12:50:02.229Z,19.14
2019-04-16T12:51:55.293Z,19.29
2019-04-16T12:52:55.856Z,19.25
2019-04-16T12:54:48.081Z,19.33
2019-04-16T12:55:48.186Z,19.32
2019-04-16T12:57:41.003Z,19.36
2019-04-16T12:58:41.014Z,19.39
2019-04-16T13:00:33.926Z,19.29
2019-04-16T13:01:36.505Z,19.32
2019-04-16T13:03:26.863Z,19.29
2019-04-16T13:04:26.874Z,19.31
2019-04-16T13:06:19.790Z,19.48
2019-04-16T13:07:19.803Z,19.50
2019-04-16T13:09:12.862Z,19.55
2019-04-16T13:10:12.732Z,19.66
2019-04-16T13:12:09.416Z,19.74
2019-04-16T13:13:05.664Z,19.55
2019-04-16T13:15:00.918Z,19.58
2019-04-16T13:15:58.624Z,19.40
2019-04-16T13:17:51.662Z,19.54
2019-04-16T13:18:51.555Z,19.48
2019-04-16T13:20:44.548Z,19.48
2019-04-16T13:21:44.508Z,19.61
2019-04-16T13:23:37.431Z,19.69
2019-04-16T13:24:37.445Z,19.71
2019-04-16T13:26:30.354Z,19.73
2019-04-16T13:27:30.404Z,19.71
2019-04-16T13:29:29.210Z,19.68
2019-04-16T13:30:23.385Z,19.73
2019-04-16T13:32:16.305Z,19.69
2019-04-16T13:33:16.324Z,19.74
2019-04-16T13:35:09.242Z,19.98
2019-04-16T13:36:09.332Z,19.96
2019-04-16T13:38:02.256Z,19.95
2019-04-16T13:39:02.267Z,19.87
2019-04-16T13:40:55.182Z,19.98
2019-04-16T13:41:55.197Z,19.91
2019-04-16T13:43:48.113Z,19.84
2019-04-16T13:44:48.127Z,19.94
2019-04-16T13:46:41.041Z,20.03
2019-04-16T13:47:41.058Z,19.99
2019-04-16T13:49:33.976Z,20.01
2019-04-16T13:50:39.888Z,20.05
2019-04-16T13:52:26.903Z,20.01
2019-04-16T13:53:29.003Z,19.78
2019-04-16T13:55:19.845Z,19.76
2019-04-16T13:56:19.847Z,19.73
2019-04-16T13:58:12.976Z,19.76
2019-04-16T13:59:12.780Z,19.86
2019-04-16T14:01:08.875Z,19.80
2019-04-16T14:02:05.810Z,19.88
2019-04-16T14:03:58.732Z,19.73
2019-04-16T14:05:03.183Z,19.83
2019-04-16T14:06:51.659Z,19.71
2019-04-16T14:07:51.676Z,19.66
2019-04-16T14:09:44.595Z,19.55
2019-04-16T14:10:44.613Z,19.63
2019-04-16T14:12:42.161Z,19.77
2019-04-16T14:13:37.536Z,19.86
2019-04-16T14:15:32.155Z,20.02
2019-04-16T14:16:30.503Z,20.03
2019-04-16T14:18:23.443Z,20.11
2019-04-16T14:19:23.426Z,20.13
2019-04-16T14:21:16.391Z,20.14
2019-04-16T14:22:21.657Z,20.14
2019-04-16T14:24:12.175Z,20.32
2019-04-16T14:25:09.288Z,20.26
2019-04-16T14:27:02.246Z,20.39
2019-04-16T14:28:03.655Z,20.47
2019-04-16T14:29:58.924Z,20.31
2019-04-16T14:30:55.160Z,20.41
2019-04-16T14:32:48.074Z,20.32
2019-04-16T14:33:48.094Z,20.39
2019-04-16T14:35:41.015Z,20.39
2019-04-16T14:36:41.022Z,20.41
2019-04-16T14:38:33.945Z,20.36
2019-04-16T14:39:33.957Z,20.33
2019-04-16T14:41:26.872Z,20.23
2019-04-16T14:42:26.889Z,20.17
2019-04-16T14:44:19.815Z,20.32
2019-04-16T14:45:19.824Z,20.16
2019-04-16T14:47:13.734Z,20.24
2019-04-16T14:48:13.746Z,20.39
2019-04-16T14:50:06.671Z,20.31
2019-04-16T14:51:06.682Z,20.39
2019-04-16T14:52:59.594Z,20.42
2019-04-16T14:53:59.921Z,20.43
2019-04-16T14:56:00.565Z,20.42
2019-04-16T14:56:52.545Z,20.42
2019-04-16T14:58:45.461Z,20.48
2019-04-16T14:59:45.472Z,20.41
2019-04-16T15:01:38.390Z,20.42
2019-04-16T15:02:38.408Z,20.43
2019-04-16T15:04:31.329Z,20.59
2019-04-16T15:05:31.339Z,20.55
2019-04-16T15:07:24.256Z,20.61
2019-04-16T15:08:24.271Z,20.69
2019-04-16T15:10:17.192Z,20.76
2019-04-16T15:11:17.203Z,20.70
2019-04-16T15:13:10.116Z,20.57
2019-04-16T15:14:10.133Z,20.61
2019-04-16T15:16:09.451Z,20.50
2019-04-16T15:17:03.064Z,20.42
2019-04-16T15:18:55.986Z,20.48
2019-04-16T15:19:56.065Z,20.41
2019-04-16T15:21:48.958Z,20.38
2019-04-16T15:22:48.931Z,20.48
2019-04-16T15:24:41.853Z,20.26
2019-04-16T15:25:41.862Z,20.29
2019-04-16T15:27:34.776Z,20.35
2019-04-16T15:28:34.791Z,20.39
2019-04-16T15:30:28.712Z,20.39
2019-04-16T15:31:32.739Z,20.24
2019-04-16T15:33:20.638Z,20.29
2019-04-16T15:34:20.693Z,20.32
2019-04-16T15:36:18.466Z,20.32
2019-04-16T15:37:13.586Z,20.32
2019-04-16T15:39:06.510Z,20.31
2019-04-16T15:40:08.074Z,20.31
2019-04-16T15:42:00.150Z,20.17
2019-04-16T15:43:00.034Z,20.28
2019-04-16T15:44:56.205Z,20.17
2019-04-16T15:45:53.386Z,20.11
2019-04-16T15:47:47.003Z,20.18
2019-04-16T15:48:50.432Z,20.14
2019-04-16T15:50:39.244Z,20.20
2019-04-16T15:51:39.255Z,20.23
2019-04-16T15:53:32.185Z,20.24
2019-04-16T15:54:32.195Z,20.28
2019-04-16T15:56:25.116Z,20.43
2019-04-16T15:57:25.125Z,20.48
2019-04-16T15:59:18.046Z,20.57
2019-04-16T16:00:18.056Z,20.61
2019-04-16T16:02:10.976Z,20.70
2019-04-16T16:03:10.991Z,20.69
2019-04-16T16:05:03.913Z,20.59
2019-04-16T16:06:03.929Z,20.70
2019-04-16T16:07:58.769Z,20.73
2019-04-16T16:08:56.860Z,20.72
2019-04-16T16:10:49.784Z,20.64
2019-04-16T16:11:51.207Z,20.43
2019-04-16T16:13:42.711Z,20.26
2019-04-16T16:14:42.728Z,20.26
2019-04-16T16:16:41.903Z,20.20
2019-04-16T16:17:35.661Z,20.16
2019-04-16T16:19:28.584Z,20.06
2019-04-16T16:20:28.597Z,20.16
2019-04-16T16:22:21.515Z,20.10
2019-04-16T16:23:21.531Z,20.02
2019-04-16T16:25:14.451Z,20.03
2019-04-16T16:26:14.461Z,20.10
2019-04-16T16:28:07.374Z,20.08
2019-04-16T16:29:07.392Z,20.08
2019-04-16T16:31:00.425Z,20.05
2019-04-16T16:32:00.327Z,20.03
2019-04-16T16:33:53.242Z,19.99
2019-04-16T16:34:53.257Z,20.05
2019-04-16T16:36:46.176Z,20.10
2019-04-16T16:37:46.187Z,20.08
2019-04-16T16:39:39.110Z,20.11
2019-04-16T16:40:39.117Z,20.14
2019-04-16T16:42:32.034Z,20.05
2019-04-16T16:43:32.051Z,20.08
2019-04-16T16:45:24.980Z,20.01
2019-04-16T16:46:24.984Z,20.10
2019-04-16T16:48:18.930Z,19.99
2019-04-16T16:49:17.911Z,20.01
2019-04-16T16:51:10.830Z,19.94
2019-04-16T16:52:10.855Z,19.95
2019-04-16T16:54:03.755Z,19.94
2019-04-16T16:55:03.771Z,19.77
2019-04-16T16:57:01.572Z,19.83
2019-04-16T16:57:57.296Z,19.78
2019-04-16T16:59:50.133Z,19.76
2019-04-16T17:00:50.143Z,19.68
2019-04-16T17:02:43.057Z,19.69
2019-04-16T17:03:43.069Z,19.66
2019-04-16T17:05:35.992Z,19.66
2019-04-16T17:06:36.003Z,19.56
2019-04-16T17:08:30.198Z,19.50
2019-04-16T17:09:30.404Z,19.43
2019-04-16T17:11:21.850Z,19.47
2019-04-16T17:12:21.861Z,19.50
2019-04-16T17:14:14.773Z,19.48
2019-04-16T17:15:14.788Z,19.47
2019-04-16T17:17:14.242Z,19.56
2019-04-16T17:18:07.719Z,19.44
2019-04-16T17:20:01.101Z,19.37
2019-04-16T17:21:00.648Z,19.33
2019-04-16T17:22:53.782Z,19.31
2019-04-16T17:23:53.839Z,19.21
2019-04-16T17:25:46.494Z,19.22
2019-04-16T17:26:47.014Z,19.08
2019-04-16T17:28:40.326Z,19.13
2019-04-16T17:29:39.434Z,18.99
2019-04-16T17:31:35.872Z,18.92
2019-04-16T17:32:32.368Z,18.84
2019-04-16T17:34:25.281Z,18.82
2019-04-16T17:35:25.295Z,18.82
2019-04-16T17:37:21.410Z,18.88
2019-04-16T17:38:18.226Z,18.80
2019-04-16T17:40:16.107Z,18.78
2019-04-16T17:41:11.154Z,18.70
2019-04-16T17:43:04.565Z,18.66
2019-04-16T17:44:04.879Z,18.73
2019-04-16T17:45:57.496Z,18.70
2019-04-16T17:46:57.502Z,18.72
2019-04-16T17:48:50.414Z,18.50
2019-04-16T17:49:50.430Z,18.48
2019-04-16T17:51:43.350Z,18.41
2019-04-16T17:52:43.362Z,18.44
2019-04-16T17:54:36.270Z,18.35
2019-04-16T17:55:36.286Z,18.30
2019-04-16T17:57:30.081Z,18.21
2019-04-16T17:58:29.211Z,18.23
2019-04-16T18:00:22.123Z,18.14
2019-04-16T18:01:22.138Z,18.15
2019-04-16T18:03:15.064Z,18.10
2019-04-16T18:04:15.066Z,18.07
2019-04-16T18:06:07.982Z,17.96
2019-04-16T18:07:07.990Z,18.03
2019-04-16T18:09:00.902Z,17.92
2019-04-16T18:10:02.103Z,17.92
2019-04-16T18:11:53.831Z,17.82
2019-04-16T18:12:55.100Z,17.81
2019-04-16T18:14:46.901Z,17.77
2019-04-16T18:15:46.826Z,17.75
2019-04-16T18:17:46.785Z,17.71
2019-04-16T18:18:39.730Z,17.68
2019-04-16T18:20:32.605Z,17.66
2019-04-16T18:21:32.618Z,17.62
2019-04-16T18:23:27.704Z,17.44
2019-04-16T18:24:25.546Z,17.46
2019-04-16T18:26:18.461Z,17.41
2019-04-16T18:27:18.469Z,17.30
2019-04-16T18:29:11.378Z,17.31
2019-04-16T18:30:11.393Z,17.21
2019-04-16T18:32:04.309Z,17.16
2019-04-16T18:33:07.229Z,17.21
2019-04-16T18:34:57.400Z,17.06
2019-04-16T18:36:01.004Z,17.01
2019-04-16T18:37:50.155Z,16.97
2019-04-16T18:38:50.161Z,16.98
2019-04-16T18:40:43.069Z,17.00
2019-04-16T18:41:43.083Z,17.00
2019-04-16T18:43:36.001Z,16.85
2019-04-16T18:44:36.011Z,16.86
2019-04-16T18:46:30.220Z,16.81